createdAt,value
2017-12-09T00:01:44.102Z,90.30
2017-12-09T00:04:10.153Z,90.20
2017-12-09T00:06:36.207Z,90.30
2017-12-09T00:09:03.024Z,90.40
2017-12-09T00:11:29.061Z,90.30
2017-12-09T00:13:55.530Z,90.30
2017-12-09T00:16:21.602Z,90.10
2017-12-09T00:18:47.653Z,90.20
2017-12-09T00:21:13.785Z,90.20
2017-12-09T00:23:39.855Z,90.20
2017-12-09T00:26:07.378Z,89.80
2017-12-09T00:28:34.333Z,90.00
2017-12-09T00:31:01.133Z,89.40
2017-12-09T00:33:28.204Z,89.30
2017-12-09T00:35:54.321Z,89.90
2017-12-09T00:38:20.334Z,89.40
2017-12-09T00:40:46.462Z,89.80
2017-12-09T00:43:13.256Z,89.70
2017-12-09T00:45:39.310Z,90.10
2017-12-09T00:48:05.389Z,89.10
2017-12-09T00:50:31.454Z,88.30
2017-12-09T00:52:58.146Z,88.10
2017-12-09T00:55:25.398Z,87.40
2017-12-09T00:57:51.439Z,87.20
2017-12-09T01:00:17.504Z,88.70
2017-12-09T01:02:43.542Z,87.30
2017-12-09T01:05:09.697Z,88.40
2017-12-09T01:07:36.510Z,88.00
2017-12-09T01:10:02.581Z,87.90
2017-12-09T01:12:30.401Z,87.50
2017-12-09T01:14:56.499Z,87.30
2017-12-09T01:17:35.657Z,87.40
2017-12-09T01:20:02.490Z,87.40
2017-12-09T01:22:28.529Z,87.30
2017-12-09T01:24:54.588Z,86.70
2017-12-09T01:27:22.615Z,87.30
2017-12-09T01:29:48.684Z,87.20
2017-12-09T01:32:14.756Z,87.20
2017-12-09T01:34:41.552Z,87.30
2017-12-09T01:37:07.623Z,87.30
2017-12-09T01:39:33.670Z,86.50
2017-12-09T01:42:00.457Z,87.20
2017-12-09T01:44:26.543Z,86.80
2017-12-09T01:46:54.011Z,85.90
2017-12-09T01:49:20.820Z,86.90
2017-12-09T01:51:46.899Z,86.90
2017-12-09T01:54:12.949Z,87.30
2017-12-09T01:56:39.002Z,87.20
2017-12-09T01:59:06.092Z,87.90
2017-12-09T02:01:32.196Z,87.90
2017-12-09T02:03:58.269Z,87.90
2017-12-09T02:06:24.345Z,87.20
2017-12-09T02:08:50.417Z,87.20
2017-12-09T02:11:17.229Z,87.40
2017-12-09T02:13:45.390Z,87.20
2017-12-09T02:16:11.463Z,87.20
2017-12-09T02:18:37.570Z,87.30
2017-12-09T02:21:03.618Z,87.30
2017-12-09T02:23:29.662Z,87.40
2017-12-09T02:25:55.705Z,86.50
2017-12-09T02:28:21.805Z,86.30
2017-12-09T02:30:47.861Z,87.40
2017-12-09T02:33:13.954Z,86.80
2017-12-09T02:35:40.006Z,87.40
2017-12-09T02:38:06.824Z,86.20
2017-12-09T02:40:32.885Z,86.20
2017-12-09T02:42:59.689Z,86.00
2017-12-09T02:45:25.750Z,85.90
2017-12-09T02:47:51.793Z,85.90
2017-12-09T02:50:17.846Z,85.30
2017-12-09T02:52:44.650Z,85.10
2017-12-09T02:55:10.778Z,85.10
2017-12-09T02:57:36.794Z,85.30
2017-12-09T03:00:02.866Z,84.80
2017-12-09T03:02:29.670Z,84.40
2017-12-09T03:04:56.517Z,84.70
2017-12-09T03:07:23.326Z,84.10
2017-12-09T03:09:49.379Z,84.10
2017-12-09T03:12:15.442Z,83.90
2017-12-09T03:14:41.495Z,83.60
2017-12-09T03:17:08.280Z,84.10
2017-12-09T03:19:34.317Z,83.40
2017-12-09T03:22:00.390Z,83.20
2017-12-09T03:24:26.446Z,83.90
2017-12-09T03:26:52.506Z,83.00
2017-12-09T03:29:19.337Z,83.40
2017-12-09T03:31:45.373Z,83.40
2017-12-09T03:34:11.466Z,82.40
2017-12-09T03:36:37.661Z,82.70
2017-12-09T03:39:04.514Z,81.50
2017-12-09T03:41:30.554Z,81.40
2017-12-09T03:43:57.329Z,81.60
2017-12-09T03:46:24.120Z,81.70
2017-12-09T03:48:50.158Z,81.60
2017-12-09T03:51:16.981Z,80.80
2017-12-09T03:53:43.030Z,80.60
2017-12-09T03:56:09.073Z,81.30
2017-12-09T03:58:35.114Z,81.80
2017-12-09T04:01:01.158Z,80.40
2017-12-09T04:03:29.686Z,80.00
2017-12-09T04:05:56.472Z,79.50
2017-12-09T04:08:22.589Z,79.30
2017-12-09T04:10:49.386Z,79.90
2017-12-09T04:13:15.442Z,79.80
2017-12-09T04:15:41.560Z,79.80
2017-12-09T04:18:07.586Z,79.00
2017-12-09T04:20:33.833Z,78.60
2017-12-09T04:22:59.910Z,78.60
2017-12-09T04:25:26.249Z,79.00
2017-12-09T04:27:52.409Z,77.80
2017-12-09T04:30:19.218Z,77.50
2017-12-09T04:32:45.273Z,77.50
2017-12-09T04:35:11.334Z,78.30
2017-12-09T04:37:37.603Z,78.90
2017-12-09T04:40:03.674Z,78.60
2017-12-09T04:42:29.738Z,77.50
2017-12-09T04:44:55.790Z,78.20
2017-12-09T04:47:22.575Z,77.90
2017-12-09T04:49:48.690Z,77.90
2017-12-09T04:52:14.828Z,77.70
2017-12-09T04:54:40.870Z,77.40
2017-12-09T04:57:07.658Z,78.00
2017-12-09T04:59:33.716Z,77.90
2017-12-09T05:01:59.869Z,78.30
2017-12-09T05:04:25.930Z,77.20
2017-12-09T05:06:51.978Z,77.60
2017-12-09T05:09:18.774Z,77.40
2017-12-09T05:11:44.818Z,77.30
2017-12-09T05:14:10.861Z,77.40
2017-12-09T05:16:36.899Z,77.40
2017-12-09T05:19:02.946Z,77.40
2017-12-09T05:21:28.984Z,77.40
2017-12-09T05:23:55.025Z,77.40
2017-12-09T05:26:21.257Z,77.50
2017-12-09T05:28:47.524Z,77.50
2017-12-09T05:31:13.763Z,76.70
2017-12-09T05:33:39.990Z,77.40
2017-12-09T05:36:06.213Z,77.40
2017-12-09T05:38:32.494Z,77.40
2017-12-09T05:40:58.722Z,77.30
2017-12-09T05:43:25.017Z,78.40
2017-12-09T05:45:51.273Z,78.20
2017-12-09T05:48:17.625Z,77.90
2017-12-09T05:50:44.093Z,78.00
2017-12-09T05:53:10.321Z,77.40
2017-12-09T05:55:36.590Z,77.50
2017-12-09T05:58:04.754Z,77.20
2017-12-09T06:00:30.990Z,77.10
2017-12-09T06:02:57.217Z,76.90
2017-12-09T06:05:23.526Z,77.20
2017-12-09T06:07:50.510Z,77.40
2017-12-09T06:10:16.737Z,77.40
2017-12-09T06:12:43.016Z,77.30
2017-12-09T06:15:09.313Z,77.40
2017-12-09T06:17:36.328Z,78.30
2017-12-09T06:20:02.573Z,78.30
2017-12-09T06:22:28.811Z,78.00
2017-12-09T06:24:55.050Z,78.50
2017-12-09T06:27:21.294Z,77.40
2017-12-09T06:29:49.958Z,77.40
2017-12-09T06:32:16.258Z,77.40
2017-12-09T06:34:43.250Z,77.40
2017-12-09T06:37:10.220Z,77.40
2017-12-09T06:39:36.433Z,77.40
2017-12-09T06:42:03.921Z,78.50
2017-12-09T06:44:30.150Z,78.70
2017-12-09T06:46:56.381Z,79.80
2017-12-09T06:49:22.614Z,80.80
2017-12-09T06:51:48.833Z,81.60
2017-12-09T06:54:15.084Z,82.80
2017-12-09T06:56:41.345Z,84.70
2017-12-09T06:59:08.397Z,86.80
2017-12-09T07:01:34.652Z,86.60
2017-12-09T07:04:01.616Z,86.60
2017-12-09T07:06:27.921Z,86.50
2017-12-09T07:08:54.215Z,87.40
2017-12-09T07:11:21.411Z,87.80
2017-12-09T07:13:47.677Z,87.80
2017-12-09T07:16:14.503Z,87.60
2017-12-09T07:18:40.770Z,88.20
2017-12-09T07:21:07.044Z,86.30
2017-12-09T07:23:34.042Z,85.70
2017-12-09T07:26:00.398Z,85.60
2017-12-09T07:28:26.744Z,86.70
2017-12-09T07:30:53.000Z,86.10
2017-12-09T07:33:19.384Z,86.70
2017-12-09T07:35:46.372Z,86.60
2017-12-09T07:38:12.635Z,86.50
2017-12-09T07:40:38.871Z,86.10
2017-12-09T07:43:05.118Z,86.70
2017-12-09T07:45:31.376Z,86.80
2017-12-09T07:47:57.621Z,86.80
2017-12-09T07:50:23.843Z,86.80
2017-12-09T07:52:50.062Z,86.80
2017-12-09T07:55:16.310Z,86.90
2017-12-09T07:57:42.537Z,87.00
2017-12-09T08:00:08.770Z,87.00
2017-12-09T08:02:35.912Z,86.70
2017-12-09T08:05:02.902Z,88.40
2017-12-09T08:07:29.859Z,87.40
2017-12-09T08:09:56.927Z,89.00
2017-12-09T08:12:23.135Z,88.30
2017-12-09T08:14:49.353Z,87.20
2017-12-09T08:17:15.581Z,87.80
2017-12-09T08:19:42.611Z,87.70
2017-12-09T08:22:08.867Z,87.60
2017-12-09T08:24:35.124Z,88.20
2017-12-09T08:27:01.362Z,88.30
2017-12-09T08:29:27.642Z,89.10
2017-12-09T08:31:53.975Z,89.00
2017-12-09T08:34:20.571Z,89.70
2017-12-09T08:36:47.889Z,89.50
2017-12-09T08:39:15.122Z,89.30
2017-12-09T08:41:41.454Z,89.30
2017-12-09T08:44:07.782Z,89.00
2017-12-09T08:46:35.068Z,89.10
2017-12-09T08:49:01.354Z,89.70
2017-12-09T08:51:27.693Z,89.40
2017-12-09T08:53:54.741Z,89.70
2017-12-09T08:56:21.129Z,89.50
2017-12-09T08:58:47.406Z,88.80
2017-12-09T09:01:13.681Z,88.80
2017-12-09T09:03:40.682Z,89.00
2017-12-09T09:06:08.653Z,89.00
2017-12-09T09:08:35.790Z,89.30
2017-12-09T09:11:01.842Z,89.30
2017-12-09T09:13:28.937Z,88.00
2017-12-09T09:15:55.657Z,87.90
2017-12-09T09:18:22.791Z,88.20
2017-12-09T09:20:49.077Z,88.10
2017-12-09T09:23:16.294Z,88.70
2017-12-09T09:25:43.126Z,88.20
2017-12-09T09:28:09.177Z,88.20
2017-12-09T09:30:35.218Z,87.40
2017-12-09T09:33:01.373Z,88.70
2017-12-09T09:35:28.356Z,88.30
2017-12-09T09:37:54.465Z,88.20
2017-12-09T09:40:21.260Z,89.10
2017-12-09T09:42:47.310Z,89.00
2017-12-09T09:45:14.207Z,89.30
2017-12-09T09:47:40.460Z,89.20
2017-12-09T09:50:06.954Z,89.90
2017-12-09T09:52:33.233Z,89.00
2017-12-09T09:54:59.837Z,88.00
2017-12-09T09:57:30.136Z,88.50
2017-12-09T09:59:56.378Z,89.70
2017-12-09T10:02:22.642Z,89.30
2017-12-09T10:04:48.973Z,89.20
2017-12-09T10:07:15.271Z,89.30
2017-12-09T10:09:41.573Z,89.60
2017-12-09T10:12:08.566Z,89.80
2017-12-09T10:14:34.838Z,89.80
2017-12-09T10:17:01.113Z,89.30
2017-12-09T10:19:27.401Z,89.50
2017-12-09T10:21:53.955Z,89.80
2017-12-09T10:24:20.885Z,89.10
2017-12-09T10:26:47.194Z,88.10
2017-12-09T10:29:13.420Z,89.00
2017-12-09T10:31:39.667Z,87.70
2017-12-09T10:34:08.978Z,87.50
2017-12-09T10:36:35.266Z,87.50
2017-12-09T10:39:01.465Z,87.50
2017-12-09T10:41:28.066Z,88.40
2017-12-09T10:43:54.289Z,88.70
2017-12-09T10:46:20.562Z,88.70
2017-12-09T10:51:17.969Z,87.60
2017-12-09T10:53:44.972Z,87.60
2017-12-09T10:56:11.213Z,87.50
2017-12-09T10:58:37.466Z,88.30
2017-12-09T11:01:04.011Z,88.40
2017-12-09T11:03:30.417Z,88.50
2017-12-09T11:05:56.671Z,87.70
2017-12-09T11:08:22.962Z,86.80
2017-12-09T11:10:49.250Z,87.70
2017-12-09T11:13:16.185Z,86.60
2017-12-09T11:15:42.589Z,87.70
2017-12-09T11:18:08.871Z,87.40
2017-12-09T11:20:35.153Z,87.70
2017-12-09T11:23:02.109Z,87.70
2017-12-09T11:25:29.089Z,87.60
2017-12-09T11:27:55.348Z,87.50
2017-12-09T11:30:21.589Z,87.80
2017-12-09T11:32:47.850Z,87.20
2017-12-09T11:35:14.868Z,88.00
2017-12-09T11:37:45.156Z,87.70
2017-12-09T11:40:11.413Z,87.70
2017-12-09T11:42:38.463Z,89.00
2017-12-09T11:45:04.731Z,89.00
2017-12-09T11:47:31.009Z,89.70
2017-12-09T11:49:57.209Z,90.00
2017-12-09T11:52:23.474Z,89.80
2017-12-09T11:54:49.750Z,89.00
2017-12-09T11:57:19.584Z,87.80
2017-12-09T11:59:46.770Z,89.00
2017-12-09T12:02:13.101Z,88.90
2017-12-09T12:04:40.111Z,88.70
2017-12-09T12:07:06.385Z,88.70
2017-12-09T12:09:32.621Z,88.50
2017-12-09T12:11:58.858Z,88.90
2017-12-09T12:14:25.141Z,89.60
2017-12-09T12:16:51.381Z,89.10
2017-12-09T12:19:18.443Z,89.60
2017-12-09T12:21:44.737Z,89.60
2017-12-09T12:24:10.998Z,89.50
2017-12-09T12:26:37.301Z,88.60
2017-12-09T12:29:03.613Z,88.90
2017-12-09T12:31:29.890Z,89.30
2017-12-09T12:33:56.139Z,89.10
2017-12-09T12:36:22.437Z,88.00
2017-12-09T12:38:48.697Z,88.20
2017-12-09T12:41:15.094Z,88.00
2017-12-09T12:43:41.378Z,87.90
2017-12-09T12:46:07.670Z,87.30
2017-12-09T12:48:33.949Z,88.00
2017-12-09T12:51:00.241Z,87.90
2017-12-09T12:53:30.787Z,87.90
2017-12-09T12:55:57.062Z,88.00
2017-12-09T12:58:23.319Z,88.00
2017-12-09T13:00:49.588Z,87.90
2017-12-09T13:03:15.936Z,88.20
2017-12-09T13:05:42.335Z,88.20
2017-12-09T13:08:08.641Z,87.90
2017-12-09T13:10:35.685Z,88.20
2017-12-09T13:13:06.427Z,88.10
2017-12-09T13:15:32.692Z,88.00
2017-12-09T13:17:58.934Z,88.10
2017-12-09T13:20:25.214Z,88.00
2017-12-09T13:22:51.454Z,88.00
2017-12-09T13:25:17.734Z,88.00
2017-12-09T13:27:43.982Z,87.90
2017-12-09T13:30:11.011Z,89.20
2017-12-09T13:32:38.024Z,89.40
2017-12-09T13:35:04.281Z,89.30
2017-12-09T13:37:31.334Z,89.80
2017-12-09T13:39:57.655Z,89.10
2017-12-09T13:42:24.660Z,89.00
2017-12-09T13:44:50.978Z,88.90
2017-12-09T13:47:17.193Z,88.70
2017-12-09T13:49:44.211Z,88.70
2017-12-09T13:52:10.479Z,88.90
2017-12-09T13:54:37.503Z,88.60
2017-12-09T13:57:03.756Z,88.60
2017-12-09T13:59:29.983Z,88.00
2017-12-09T14:01:56.206Z,88.00
2017-12-09T14:04:23.204Z,87.70
2017-12-09T14:06:49.500Z,87.50
2017-12-09T14:09:15.781Z,88.00
2017-12-09T14:11:42.043Z,88.00
2017-12-09T14:14:08.311Z,87.90
2017-12-09T14:16:34.583Z,88.20
2017-12-09T14:19:00.897Z,88.10
2017-12-09T14:21:27.173Z,88.10
2017-12-09T14:23:53.457Z,87.70
2017-12-09T14:26:19.856Z,87.30
2017-12-09T14:28:46.078Z,87.70
2017-12-09T14:31:12.370Z,87.40
2017-12-09T14:33:40.777Z,88.10
2017-12-09T14:36:07.030Z,87.20
2017-12-09T14:38:33.295Z,87.90
2017-12-09T14:40:59.575Z,87.80
2017-12-09T14:43:26.586Z,88.40
2017-12-09T14:45:53.622Z,87.90
2017-12-09T14:48:25.859Z,87.40
2017-12-09T14:50:52.082Z,87.30
2017-12-09T14:53:18.330Z,87.90
2017-12-09T14:55:44.575Z,87.50
2017-12-09T14:58:10.828Z,87.80
2017-12-09T15:00:37.087Z,87.20
2017-12-09T15:03:03.335Z,87.40
2017-12-09T15:05:32.349Z,87.70
2017-12-09T15:07:58.586Z,87.10
2017-12-09T15:10:24.812Z,86.30
2017-12-09T15:12:51.830Z,87.20
2017-12-09T15:15:18.033Z,87.00
2017-12-09T15:17:44.297Z,86.00
2017-12-09T15:20:10.518Z,86.60
2017-12-09T15:22:36.782Z,87.00
2017-12-09T15:25:06.778Z,86.10
2017-12-09T15:27:33.014Z,86.00
2017-12-09T15:30:00.030Z,86.90
2017-12-09T15:32:26.257Z,86.80
2017-12-09T15:34:52.504Z,86.20
2017-12-09T15:37:18.803Z,86.80
2017-12-09T15:39:45.086Z,85.20
2017-12-09T15:42:12.041Z,86.20
2017-12-09T15:44:38.285Z,85.90
2017-12-09T15:47:04.530Z,85.30
2017-12-09T15:49:30.800Z,85.80
2017-12-09T15:51:57.058Z,85.20
2017-12-09T15:54:23.297Z,85.60
2017-12-09T15:56:52.341Z,84.50
2017-12-09T15:59:19.405Z,84.70
2017-12-09T16:01:46.398Z,84.00
2017-12-09T16:04:12.646Z,83.90
2017-12-09T16:06:39.626Z,83.80
2017-12-09T16:09:05.873Z,83.80
2017-12-09T16:11:38.049Z,83.30
2017-12-09T16:14:04.273Z,83.10
2017-12-09T16:16:30.521Z,83.10
2017-12-09T16:18:57.482Z,82.60
2017-12-09T16:21:25.237Z,83.40
2017-12-09T16:23:51.468Z,83.30
2017-12-09T16:26:18.525Z,82.70
2017-12-09T16:28:44.759Z,82.60
2017-12-09T16:31:10.981Z,82.60
2017-12-09T16:33:37.459Z,82.50
2017-12-09T16:36:03.705Z,82.70
2017-12-09T16:38:29.964Z,82.00
2017-12-09T16:40:56.246Z,81.50
2017-12-09T16:43:22.492Z,81.90
2017-12-09T16:45:48.810Z,81.70
2017-12-09T16:48:15.114Z,82.30
2017-12-09T16:50:41.346Z,82.20
2017-12-09T16:53:07.567Z,81.30
2017-12-09T16:55:37.719Z,80.50
2017-12-09T16:58:03.933Z,80.80
2017-12-09T17:00:30.895Z,80.80
2017-12-09T17:02:57.837Z,80.60
2017-12-09T17:05:24.013Z,80.50
2017-12-09T17:07:50.247Z,80.50
2017-12-09T17:10:16.472Z,80.30
2017-12-09T17:12:48.087Z,80.50
2017-12-09T17:15:15.035Z,79.90
2017-12-09T17:17:41.274Z,79.90
2017-12-09T17:20:08.240Z,80.50
2017-12-09T17:22:34.470Z,80.50
2017-12-09T17:25:07.093Z,79.30
2017-12-09T17:27:33.334Z,79.30
2017-12-09T17:29:59.546Z,79.80
2017-12-09T17:32:25.773Z,79.50
2017-12-09T17:34:51.991Z,79.80
2017-12-09T17:37:18.932Z,78.50
2017-12-09T17:39:45.889Z,78.50
2017-12-09T17:42:15.973Z,78.50
2017-12-09T17:44:42.276Z,79.20
2017-12-09T17:47:08.465Z,78.40
2017-12-09T17:49:34.713Z,78.50
2017-12-09T17:52:01.009Z,78.50
2017-12-09T17:54:27.169Z,78.50
2017-12-09T17:56:54.245Z,77.70
2017-12-09T17:59:20.474Z,77.70
2017-12-09T18:01:50.621Z,78.50
2017-12-09T18:04:17.574Z,76.90
2017-12-09T18:06:44.549Z,77.90
2017-12-09T18:09:10.777Z,77.70
2017-12-09T18:11:37.007Z,76.40
2017-12-09T18:14:03.220Z,77.10
2017-12-09T18:16:29.466Z,77.20
2017-12-09T18:18:55.726Z,76.00
2017-12-09T18:21:26.846Z,76.60
2017-12-09T18:23:53.035Z,76.30
2017-12-09T18:26:19.264Z,75.90
2017-12-09T18:28:46.237Z,76.10
2017-12-09T18:31:12.437Z,76.10
2017-12-09T18:33:38.744Z,76.10
2017-12-09T18:36:04.983Z,75.40
2017-12-09T18:38:31.190Z,75.70
2017-12-09T18:41:01.827Z,75.50
2017-12-09T18:43:28.109Z,74.50
2017-12-09T18:45:54.308Z,74.30
2017-12-09T18:48:20.533Z,74.20
2017-12-09T18:50:46.863Z,74.70
2017-12-09T18:53:13.091Z,74.10
2017-12-09T18:55:39.282Z,75.00
2017-12-09T18:58:05.516Z,74.50
2017-12-09T19:00:31.740Z,75.10
2017-12-09T19:03:00.474Z,74.90
2017-12-09T19:05:26.745Z,74.80
2017-12-09T19:07:53.737Z,74.40
2017-12-09T19:10:20.758Z,74.60
2017-12-09T19:12:46.988Z,74.60
2017-12-09T19:15:13.225Z,74.30
2017-12-09T19:17:39.413Z,74.70
2017-12-09T19:20:05.638Z,74.20
2017-12-09T19:22:34.997Z,73.90
2017-12-09T19:25:01.945Z,73.60
2017-12-09T19:27:28.149Z,73.70
2017-12-09T19:29:54.390Z,74.40
2017-12-09T19:32:20.658Z,73.30
2017-12-09T19:34:46.970Z,73.10
2017-12-09T19:37:13.898Z,73.80
2017-12-09T19:39:40.858Z,73.50
2017-12-09T19:42:10.291Z,73.50
2017-12-09T19:44:36.506Z,73.30
2017-12-09T19:47:02.738Z,73.60
2017-12-09T19:49:28.937Z,73.30
2017-12-09T19:51:55.157Z,74.00
2017-12-09T19:54:21.353Z,74.00
2017-12-09T19:56:47.630Z,74.00
2017-12-09T19:59:13.926Z,73.80
2017-12-09T20:01:44.703Z,74.00
2017-12-09T20:04:10.930Z,73.20
2017-12-09T20:06:37.207Z,74.00
2017-12-09T20:09:03.420Z,74.50
2017-12-09T20:11:30.346Z,74.80
2017-12-09T20:13:56.564Z,75.10
2017-12-09T20:16:22.750Z,74.60
2017-12-09T20:18:49.070Z,74.50
2017-12-09T20:21:19.405Z,74.40
2017-12-09T20:23:45.642Z,73.80
2017-12-09T20:26:11.865Z,75.50
2017-12-09T20:28:38.130Z,73.90
2017-12-09T20:31:04.390Z,74.40
2017-12-09T20:33:31.465Z,74.70
2017-12-09T20:35:57.747Z,74.60
2017-12-09T20:38:28.942Z,74.50
2017-12-09T20:40:55.201Z,74.00
2017-12-09T20:43:21.551Z,73.40
2017-12-09T20:45:47.877Z,74.00
2017-12-09T20:48:14.087Z,73.70
2017-12-09T20:50:40.377Z,74.30
2017-12-09T20:53:06.601Z,74.10
2017-12-09T20:55:32.862Z,74.50
2017-12-09T20:58:02.521Z,74.10
2017-12-09T21:00:28.757Z,74.30
2017-12-09T21:02:54.969Z,74.40
2017-12-09T21:05:21.189Z,74.20
2017-12-09T21:07:47.437Z,74.00
2017-12-09T21:10:13.721Z,73.80
2017-12-09T21:12:39.931Z,73.90
2017-12-09T21:15:09.237Z,73.70
2017-12-09T21:17:35.495Z,73.30
2017-12-09T21:20:02.454Z,73.40
2017-12-09T21:22:28.715Z,73.30
2017-12-09T21:24:55.029Z,73.30
2017-12-09T21:27:21.346Z,73.10
2017-12-09T21:29:47.655Z,73.30
2017-12-09T21:32:16.829Z,73.50
2017-12-09T21:34:43.069Z,73.10
2017-12-09T21:37:10.060Z,72.90
2017-12-09T21:39:36.269Z,72.90
2017-12-09T21:42:03.266Z,72.60
2017-12-09T21:44:29.526Z,72.80
2017-12-09T21:46:55.923Z,73.10
2017-12-09T21:49:22.895Z,72.90
2017-12-09T21:51:49.133Z,72.90
2017-12-09T21:54:15.529Z,73.40
2017-12-09T21:56:41.794Z,73.80
2017-12-09T21:59:08.042Z,73.40
2017-12-09T22:01:34.409Z,73.40
2017-12-09T22:04:00.718Z,73.50
2017-12-09T22:06:27.722Z,73.30
2017-12-09T22:08:54.771Z,73.20
2017-12-09T22:11:21.082Z,73.10
2017-12-09T22:13:48.335Z,73.40
2017-12-09T22:16:14.603Z,72.90
2017-12-09T22:18:41.591Z,73.40
2017-12-09T22:21:08.609Z,73.50
2017-12-09T22:23:34.837Z,73.50
2017-12-09T22:26:01.094Z,73.40
2017-12-09T22:28:27.357Z,74.10
2017-12-09T22:30:54.472Z,73.90
2017-12-09T22:33:20.727Z,73.80
2017-12-09T22:35:47.026Z,73.70
2017-12-09T22:38:13.331Z,73.90
2017-12-09T22:40:40.334Z,74.20
2017-12-09T22:43:06.758Z,74.10
2017-12-09T22:45:35.233Z,73.50
2017-12-09T22:48:02.263Z,73.60
2017-12-09T22:50:28.483Z,73.50
2017-12-09T22:52:54.813Z,73.90
2017-12-09T22:55:21.134Z,73.50
2017-12-09T22:57:48.134Z,73.80
2017-12-09T23:00:14.374Z,74.40
2017-12-09T23:02:43.602Z,73.70
2017-12-09T23:05:09.892Z,73.70
2017-12-09T23:07:36.144Z,73.40
2017-12-09T23:10:03.115Z,73.10
2017-12-09T23:12:29.397Z,73.10
2017-12-09T23:14:55.661Z,73.50
2017-12-09T23:17:22.153Z,73.60
2017-12-09T23:19:48.505Z,72.40
2017-12-09T23:22:14.706Z,72.90
2017-12-09T23:24:41.658Z,74.00
2017-12-09T23:27:08.633Z,72.90
2017-12-09T23:29:34.865Z,73.10
2017-12-09T23:32:01.829Z,73.00
2017-12-09T23:34:28.060Z,72.80
2017-12-09T23:36:55.494Z,72.10
2017-12-09T23:39:21.738Z,72.00
2017-12-09T23:41:48.026Z,72.90
2017-12-09T23:44:14.249Z,72.60
2017-12-09T23:46:41.273Z,72.60
2017-12-09T23:49:08.233Z,72.80
2017-12-09T23:51:34.478Z,72.60
2017-12-09T23:54:00.718Z,72.90
2017-12-09T23:56:27.062Z,73.00
2017-12-09T23:58:53.362Z,71.60
